This is the latest recevied weather packets stored in our database for station/object SM0PQB-13. If no packets are shown the sender has not sent any weather packets the latest 1 day(s).
| Time | Temp. | Humidity | Pressure | Rain* | Wind** | Luminosity | Snow |
|---|---|---|---|---|---|---|---|
| 1778098152 | 23.89° C | 35% | 1011.6 hPa | - | - | - | - |
| 1778097552 | 23.89° C | 35% | 1011.6 hPa | - | - | - | - |
| 1778095752 | 23.89° C | 33% | 1011.6 hPa | - | - | - | - |
| 1778095153 | 23.89° C | 33% | 1011.6 hPa | - | - | - | - |
| 1778091552 | 23.33° C | 32% | 1011.6 hPa | - | - | - | - |
| 1778087353 | 23.89° C | 30% | 1011.2 hPa | - | - | - | - |
| 1778083153 | 25° C | 29% | 1011 hPa | - | - | - | - |
| 1778081952 | 25° C | 29% | 1010.9 hPa | - | - | - | - |
| 1778079553 | 25.56° C | 29% | 1011.1 hPa | - | - | - | - |
| 1778077752 | 26.11° C | 28% | 1010.9 hPa | - | - | - | - |
| 1778074752 | 27.78° C | 26% | 1010.2 hPa | - | - | - | - |
| 1778071152 | 36.67° C | 17% | 1011 hPa | - | - | - | - |
| 1778069353 | 33.89° C | 19% | 1011.2 hPa | - | - | - | - |
| 1778067553 | 32.22° C | 20% | 1010.6 hPa | - | - | - | - |
| 1778066352 | 31.67° C | 22% | 1011.5 hPa | - | - | - | - |
| 1778065752 | 30.56° C | 22% | 1011.4 hPa | - | - | - | - |
| 1778065154 | 29.44° C | 23% | 1011.5 hPa | - | - | - | - |
| 1778063954 | 27.78° C | 26% | 1011.5 hPa | - | - | - | - |
| 1778063353 | 26.11° C | 28% | 1011.7 hPa | - | - | - | - |
| 1778061555 | 23.89° C | 32% | 1011.9 hPa | - | - | - | - |
| 1778059752 | 23.33° C | 33% | 1012 hPa | - | - | - | - |
| 1778059152 | 23.33° C | 32% | 1011.9 hPa | - | - | - | - |
| 1778058553 | 23.33° C | 32% | 1011.8 hPa | - | - | - | - |
| 1778057353 | 23.33° C | 33% | 1011.9 hPa | - | - | - | - |
| 1778056752 | 23.33° C | 33% | 1012.1 hPa | - | - | - | - |
* Rain since midnight (hover to see other rain measurements)
** Current wind speed in m/s (hover to see current wind gust speed)